Time;durP1;ratioP1;P1;durP2;ratioP2;P2;SDS_P1;SDS_P2;PMS_P1;PMS_P2;Temp;Humidity;BMP_temperature;BMP_pressure;BME280_temperature;BME280_humidity;BME280_pressure;Samples;Min_cycle;Max_cycle;Signal;HPM_P1;HPM_P2
2023/04/28 04:04:36;;;;;;;2.20;2.10;;;11.00;99.90;;;;;;5827014;23;20706;-70
2023/04/28 04:07:01;;;;;;;3.10;2.47;;;11.00;99.90;;;;;;4955372;29;20203;-70
2023/04/28 04:09:27;;;;;;;2.60;2.07;;;11.00;99.90;;;;;;4955689;29;20228;-70
2023/04/28 04:11:53;;;;;;;2.33;2.13;;;11.00;99.90;;;;;;4955685;29;20166;-70
2023/04/28 04:14:18;;;;;;;2.20;2.00;;;11.00;99.90;;;;;;4955063;29;20190;-70
2023/04/28 04:16:46;;;;;;;2.23;2.03;;;11.00;99.90;;;;;;4955086;29;20695;-70
2023/04/28 04:19:12;;;;;;;2.60;2.40;;;11.00;99.90;;;;;;4955256;29;20172;-70
2023/04/28 04:21:37;;;;;;;3.00;2.80;;;11.00;99.90;;;;;;4955037;29;20205;-70
2023/04/28 04:24:03;;;;;;;1.80;1.70;;;11.00;99.90;;;;;;4954859;29;20173;-70
2023/04/28 04:26:29;;;;;;;3.20;2.93;;;11.00;99.90;;;;;;4955224;29;20204;-71
2023/04/28 04:28:54;;;;;;;1.97;1.87;;;11.10;99.90;;;;;;4955524;29;20182;-70
2023/04/28 04:31:21;;;;;;;2.23;2.13;;;11.10;99.90;;;;;;4955024;29;20184;-70
2023/04/28 04:33:47;;;;;;;2.72;2.53;;;11.10;99.90;;;;;;4954373;29;20313;-70
2023/04/28 04:36:13;;;;;;;3.22;2.08;;;11.10;99.90;;;;;;4954684;29;20185;-70
2023/04/28 04:38:39;;;;;;;2.00;1.90;;;11.20;99.90;;;;;;4955197;29;20174;-71
2023/04/28 04:41:05;;;;;;;2.63;2.43;;;11.20;99.90;;;;;;4955196;29;20172;-70
2023/04/28 04:43:30;;;;;;;2.50;1.87;;;11.20;99.90;;;;;;4954663;29;20413;-69
2023/04/28 04:45:56;;;;;;;2.53;2.43;;;11.20;99.90;;;;;;4954827;29;20193;-71
2023/04/28 04:48:21;;;;;;;2.23;2.13;;;11.20;99.90;;;;;;4955054;29;20699;-70
2023/04/28 04:50:48;;;;;;;2.17;1.97;;;11.30;99.90;;;;;;4938362;29;20716;-70
2023/04/28 04:53:13;;;;;;;3.30;2.40;;;11.30;99.90;;;;;;4955168;28;20204;-71
2023/04/28 04:55:39;;;;;;;2.73;2.53;;;11.30;99.90;;;;;;4958774;29;20958;-70
2023/04/28 04:58:04;;;;;;;2.10;2.00;;;11.30;99.90;;;;;;4958539;29;20174;-70
2023/04/28 05:00:30;;;;;;;1.50;1.50;;;11.40;99.90;;;;;;4958619;29;20202;-70
2023/04/28 05:02:56;;;;;;;2.53;2.33;;;11.40;99.90;;;;;;4958216;29;20203;-70
2023/04/28 05:05:21;;;;;;;2.03;1.83;;;11.40;99.90;;;;;;4957322;29;20190;-70
2023/04/28 05:07:47;;;;;;;2.23;2.13;;;11.50;99.90;;;;;;4951263;29;20679;-69
2023/04/28 05:10:13;;;;;;;2.77;2.43;;;11.50;99.90;;;;;;4939087;29;20529;-71
2023/04/28 05:12:38;;;;;;;1.53;1.47;;;11.50;99.90;;;;;;4939272;29;20453;-70
2023/04/28 05:15:06;;;;;;;3.00;1.53;;;11.50;99.90;;;;;;4938796;29;20194;-72
2023/04/28 05:17:32;;;;;;;2.20;2.10;;;11.60;99.90;;;;;;4950106;29;20247;-72
2023/04/28 05:19:57;;;;;;;5.90;2.37;;;11.50;99.90;;;;;;4958205;29;20416;-70
2023/04/28 05:22:23;;;;;;;3.10;2.33;;;11.50;99.90;;;;;;4958286;29;20205;-74
2023/04/28 05:24:48;;;;;;;2.70;2.50;;;11.60;99.90;;;;;;4957693;28;20216;-69
2023/04/28 05:27:14;;;;;;;2.80;2.30;;;11.60;99.90;;;;;;4958102;29;20174;-69
2023/04/28 05:29:40;;;;;;;2.40;2.10;;;11.70;99.90;;;;;;4957789;29;20175;-70
2023/04/28 05:32:05;;;;;;;2.03;1.33;;;11.70;99.90;;;;;;4958043;29;20234;-68
2023/04/28 05:34:31;;;;;;;2.50;2.00;;;11.60;99.90;;;;;;4957509;28;20454;-69
2023/04/28 05:36:57;;;;;;;2.60;2.47;;;11.60;99.90;;;;;;4957882;29;20670;-68
2023/04/28 05:39:22;;;;;;;2.70;2.30;;;11.60;99.90;;;;;;4958098;29;20187;-69
2023/04/28 05:41:48;;;;;;;3.13;2.93;;;11.60;99.90;;;;;;4957910;29;20203;-70
2023/04/28 05:44:13;;;;;;;2.30;2.20;;;11.70;99.90;;;;;;4939855;29;20672;-72
2023/04/28 05:46:39;;;;;;;6.27;2.03;;;11.70;99.90;;;;;;4947721;29;20174;-72
2023/04/28 05:49:05;;;;;;;1.70;1.60;;;11.70;99.90;;;;;;4947541;29;20174;-71
2023/04/28 05:51:30;;;;;;;2.10;2.00;;;11.80;99.90;;;;;;4931168;29;20217;-73
2023/04/28 05:53:56;;;;;;;2.00;1.90;;;11.70;99.90;;;;;;4957214;28;20637;-72
2023/04/28 05:56:22;;;;;;;2.47;2.30;;;11.70;99.90;;;;;;4940209;29;20190;-74
2023/04/28 05:58:49;;;;;;;1.17;1.17;;;11.80;99.90;;;;;;4940137;29;20647;-74
2023/04/28 06:01:15;;;;;;;2.72;1.33;;;11.80;99.90;;;;;;4957594;29;20173;-74
2023/04/28 06:03:41;;;;;;;4.20;2.63;;;11.90;99.90;;;;;;4957162;29;20197;-71
2023/04/28 06:06:10;;;;;;;1.60;1.50;;;12.00;99.90;;;;;;4956146;28;20454;-76
2023/04/28 06:08:37;;;;;;;1.50;1.40;;;12.10;99.90;;;;;;4957709;29;20538;-74
2023/04/28 06:11:02;;;;;;;2.07;1.97;;;12.20;99.90;;;;;;4957605;29;20410;-73
2023/04/28 06:13:28;;;;;;;2.30;2.20;;;12.20;99.90;;;;;;4957060;29;20417;-74
2023/04/28 06:15:54;;;;;;;1.70;1.50;;;12.20;99.90;;;;;;4957312;28;20211;-67
2023/04/28 06:18:20;;;;;;;2.80;2.60;;;12.20;99.90;;;;;;4957258;29;20171;-73
2023/04/28 06:20:45;;;;;;;1.50;1.40;;;12.20;99.90;;;;;;4956920;29;20490;-72
2023/04/28 06:23:11;;;;;;;2.37;1.80;;;12.20;99.90;;;;;;4956672;29;20519;-73
2023/04/28 06:25:37;;;;;;;1.93;1.77;;;12.20;99.90;;;;;;4957043;28;20244;-71
2023/04/28 06:28:02;;;;;;;2.07;1.97;;;12.20;99.90;;;;;;4957072;29;20667;-72
2023/04/28 06:30:28;;;;;;;1.83;1.80;;;12.10;99.90;;;;;;4956980;29;20226;-71
2023/04/28 06:32:56;;;;;;;2.83;2.57;;;12.20;99.90;;;;;;4956971;29;20186;-71
2023/04/28 06:35:22;;;;;;;3.50;2.50;;;12.20;99.90;;;;;;4956609;28;20221;-70
2023/04/28 06:37:47;;;;;;;3.20;2.87;;;12.10;99.90;;;;;;4956979;29;20457;-71
2023/04/28 06:40:13;;;;;;;2.10;1.97;;;12.00;99.90;;;;;;4956952;29;20183;-69
2023/04/28 06:42:39;;;;;;;1.53;1.50;;;12.00;99.90;;;;;;4956709;29;20293;-69
2023/04/28 06:45:05;;;;;;;3.13;1.63;;;12.00;99.90;;;;;;4956167;28;20201;-70
2023/04/28 06:47:31;;;;;;;1.73;1.63;;;11.90;99.90;;;;;;4956551;29;20182;-70
2023/04/28 06:49:56;;;;;;;3.00;2.30;;;11.90;99.90;;;;;;4956461;29;20291;-70
2023/04/28 06:52:22;;;;;;;5.00;3.50;;;11.80;99.90;;;;;;4956385;29;20166;-70
2023/04/28 06:54:49;;;;;;;1.93;1.80;;;11.80;99.90;;;;;;4956001;28;20224;-71
2023/04/28 06:57:15;;;;;;;2.97;2.77;;;11.70;99.90;;;;;;4956534;29;20174;-71
2023/04/28 06:59:42;;;;;;;1.40;1.30;;;11.70;99.90;;;;;;4956447;29;20753;-72
2023/04/28 07:02:09;;;;;;;3.37;2.13;;;11.70;99.90;;;;;;4956449;29;20795;-72
2023/04/28 07:04:35;;;;;;;2.87;2.57;;;11.70;99.90;;;;;;4956046;28;20572;-71
2023/04/28 07:07:01;;;;;;;3.03;2.73;;;11.80;99.90;;;;;;4937344;29;20945;-73
2023/04/28 07:09:26;;;;;;;2.50;2.30;;;11.80;99.90;;;;;;4946795;29;20437;-71
2023/04/28 07:11:52;;;;;;;3.60;2.33;;;11.80;99.90;;;;;;4956451;29;20267;-72
2023/04/28 07:14:18;;;;;;;2.67;2.00;;;11.80;99.90;;;;;;4955999;28;20249;-72
2023/04/28 07:16:43;;;;;;;1.77;1.67;;;11.80;99.90;;;;;;4956136;28;20713;-71
2023/04/28 07:19:09;;;;;;;2.17;2.07;;;11.80;99.90;;;;;;4956283;29;20176;-71
2023/04/28 07:21:35;;;;;;;2.67;2.33;;;11.90;99.90;;;;;;4955199;29;20537;-72
2023/04/28 07:24:00;;;;;;;2.23;2.07;;;11.90;99.90;;;;;;4948538;29;20171;-71
2023/04/28 07:26:26;;;;;;;7.77;1.70;;;11.90;99.90;;;;;;4936130;29;20586;-72
2023/04/28 07:28:52;;;;;;;2.23;2.00;;;11.90;99.90;;;;;;4935596;29;20226;-73
2023/04/28 07:31:17;;;;;;;2.10;2.00;;;12.00;99.90;;;;;;4919760;29;20195;-70
2023/04/28 07:33:43;;;;;;;2.60;2.40;;;12.10;99.90;;;;;;4936301;29;20241;-70
2023/04/28 07:36:09;;;;;;;1.90;1.80;;;12.10;99.90;;;;;;4936469;29;20236;-71
2023/04/28 07:38:35;;;;;;;2.47;1.67;;;12.20;99.90;;;;;;4923199;29;20632;-71
2023/04/28 07:41:03;;;;;;;2.17;2.00;;;12.20;99.90;;;;;;4936466;29;20693;-71
2023/04/28 07:43:29;;;;;;;1.90;1.80;;;12.20;99.90;;;;;;4936193;29;20435;-70
2023/04/28 07:45:55;;;;;;;1.77;1.67;;;12.30;99.90;;;;;;4936715;29;20451;-73
2023/04/28 07:48:21;;;;;;;5.47;1.77;;;12.30;99.90;;;;;;4936768;29;20929;-71
2023/04/28 07:50:47;;;;;;;3.13;1.53;;;12.30;99.90;;;;;;4936742;29;20178;-70
2023/04/28 07:53:12;;;;;;;1.80;1.70;;;12.30;99.90;;;;;;4953272;29;20582;-72
2023/04/28 07:55:40;;;;;;;2.40;2.30;;;12.40;99.90;;;;;;4938112;29;20456;-72
2023/04/28 07:58:06;;;;;;;3.23;2.47;;;12.40;99.90;;;;;;4955556;29;20176;-71
2023/04/28 08:00:32;;;;;;;2.13;1.93;;;12.40;99.90;;;;;;4955366;29;20407;-71
2023/04/28 08:02:58;;;;;;;2.13;2.03;;;12.50;99.90;;;;;;4951834;29;20456;-70
2023/04/28 08:05:23;;;;;;;2.30;2.10;;;12.50;99.90;;;;;;4935756;29;20192;-72
2023/04/28 08:07:49;;;;;;;2.23;2.10;;;12.50;99.90;;;;;;4936329;29;20543;-72
2023/04/28 08:10:15;;;;;;;2.73;2.53;;;12.50;99.90;;;;;;4936352;29;20707;-73
2023/04/28 08:12:40;;;;;;;3.17;2.47;;;12.50;99.90;;;;;;4936127;29;20182;-71
2023/04/28 08:15:08;;;;;;;3.10;2.80;;;12.50;99.90;;;;;;4918611;29;20204;-71
2023/04/28 08:17:33;;;;;;;2.70;1.83;;;12.50;99.90;;;;;;4938651;29;20793;-70
2023/04/28 08:19:59;;;;;;;3.73;3.23;;;12.60;99.90;;;;;;4955267;29;20415;-69
2023/04/28 08:22:25;;;;;;;3.13;2.83;;;12.60;99.90;;;;;;4955266;29;20253;-70
2023/04/28 08:24:50;;;;;;;2.00;1.90;;;12.60;99.90;;;;;;4955030;28;20547;-71
2023/04/28 08:27:16;;;;;;;3.67;2.73;;;12.50;99.90;;;;;;4955418;29;20592;-70
2023/04/28 08:29:41;;;;;;;2.73;2.53;;;12.50;99.90;;;;;;4961005;28;20179;-72
2023/04/28 08:32:07;;;;;;;2.70;2.50;;;12.50;99.90;;;;;;4959781;29;20210;-69
2023/04/28 08:34:33;;;;;;;2.77;2.57;;;12.40;99.90;;;;;;4942186;29;20215;-70
2023/04/28 08:36:59;;;;;;;2.90;2.70;;;12.50;99.90;;;;;;4942737;29;20206;-71
2023/04/28 08:39:25;;;;;;;2.90;2.70;;;12.50;99.90;;;;;;4947032;29;20200;-69
2023/04/28 08:41:51;;;;;;;3.93;2.63;;;12.50;99.90;;;;;;4947872;29;20515;-69
2023/04/28 08:44:17;;;;;;;6.37;5.80;;;12.60;99.90;;;;;;4944602;29;20440;-69
2023/04/28 08:46:44;;;;;;;6.13;5.53;;;12.50;99.90;;;;;;4944829;29;20901;-69
2023/04/28 08:49:15;;;;;;;3.53;2.90;;;12.60;99.90;;;;;;4959228;29;20171;-69
2023/04/28 08:51:48;;;;;;;2.03;1.90;;;12.60;99.90;;;;;;4950467;28;20457;-69
2023/04/28 08:54:18;;;;;;;4.60;4.20;;;12.80;99.90;;;;;;4945718;29;20487;-69
2023/04/28 08:56:45;;;;;;;4.17;3.33;;;12.80;99.90;;;;;;4961982;28;20382;-68
2023/04/28 08:59:12;;;;;;;6.50;3.10;;;12.80;99.90;;;;;;4961321;29;20414;-69
2023/04/28 09:01:38;;;;;;;2.40;2.20;;;12.90;99.90;;;;;;4942208;29;21067;-69
2023/04/28 09:04:03;;;;;;;3.20;2.90;;;12.90;99.90;;;;;;4942849;29;20589;-70
2023/04/28 09:06:38;;;;;;;3.37;2.50;;;13.00;99.90;;;;;;4943363;29;20428;-71
2023/04/28 09:09:24;;;;;;;3.90;2.50;;;13.10;99.90;;;;;;4928355;29;20415;-69
2023/04/28 09:11:58;;;;;;;2.17;2.00;;;13.20;99.90;;;;;;4946132;29;20405;-69
2023/04/28 09:14:25;;;;;;;2.70;2.50;;;13.40;99.90;;;;;;4943483;29;20425;-70
2023/04/28 09:16:51;;;;;;;3.87;3.03;;;13.50;99.90;;;;;;4942370;29;20419;-69
2023/04/28 09:19:17;;;;;;;1.80;1.70;;;13.50;99.90;;;;;;4942180;29;20704;-69
2023/04/28 09:21:54;;;;;;;2.90;2.10;;;13.60;99.90;;;;;;4941626;29;20855;-70
2023/04/28 09:24:30;;;;;;;2.80;2.03;;;13.60;99.90;;;;;;4941505;29;20433;-70
2023/04/28 09:26:59;;;;;;;2.87;2.40;;;13.60;99.90;;;;;;4941796;29;20420;-70
2023/04/28 09:29:25;;;;;;;4.30;2.53;;;13.60;99.90;;;;;;4941890;29;20767;-69
2023/04/28 09:31:52;;;;;;;1.80;1.67;;;13.70;99.90;;;;;;4941918;29;20427;-70
2023/04/28 09:34:18;;;;;;;2.73;2.53;;;13.80;99.90;;;;;;4941501;29;20197;-69
2023/04/28 09:36:43;;;;;;;2.53;2.33;;;13.80;99.90;;;;;;4941684;29;20903;-69
2023/04/28 09:39:09;;;;;;;4.30;2.03;;;13.90;99.90;;;;;;4924575;29;20507;-70
2023/04/28 09:41:42;;;;;;;2.83;2.63;;;13.90;99.90;;;;;;4938066;29;20671;-70
2023/04/28 09:44:16;;;;;;;2.77;2.57;;;13.90;99.90;;;;;;4938889;29;20231;-70
2023/04/28 09:46:46;;;;;;;3.50;3.23;;;13.90;99.90;;;;;;4949582;29;20415;-72
2023/04/28 09:49:12;;;;;;;1.93;1.83;;;13.80;99.90;;;;;;4958030;29;20766;-70
2023/04/28 09:51:38;;;;;;;3.00;2.77;;;13.80;99.90;;;;;;4957885;29;20383;-72
2023/04/28 09:54:04;;;;;;;2.60;2.40;;;13.90;99.90;;;;;;4956618;28;20435;-72
2023/04/28 09:56:32;;;;;;;2.67;2.47;;;13.90;99.90;;;;;;4940564;29;20810;-71
2023/04/28 09:58:59;;;;;;;3.80;2.97;;;14.00;99.90;;;;;;4957715;29;20404;-69
2023/04/28 10:01:29;;;;;;;2.63;2.40;;;14.00;99.90;;;;;;4957452;29;20519;-70
2023/04/28 10:03:56;;;;;;;2.73;2.27;;;14.00;99.90;;;;;;4957310;28;20404;-70
2023/04/28 10:06:23;;;;;;;3.60;2.70;;;14.10;99.90;;;;;;4957507;29;20563;-71
2023/04/28 10:08:50;;;;;;;2.80;2.60;;;14.10;99.90;;;;;;4957445;29;20927;-71
2023/04/28 10:11:16;;;;;;;2.87;2.67;;;14.20;99.90;;;;;;4957511;29;20495;-69
2023/04/28 10:13:43;;;;;;;3.10;2.80;;;14.40;99.90;;;;;;4957132;29;20528;-68
2023/04/28 10:16:10;;;;;;;3.20;3.00;;;14.50;99.90;;;;;;4957461;28;20499;-67
2023/04/28 10:18:36;;;;;;;3.97;3.60;;;14.60;99.90;;;;;;4957515;29;20409;-70
2023/04/28 10:21:04;;;;;;;3.33;3.10;;;14.90;99.90;;;;;;4940329;29;20413;-70
2023/04/28 10:23:39;;;;;;;2.60;2.40;;;15.00;99.90;;;;;;4949127;29;20472;-71
2023/04/28 10:26:11;;;;;;;4.07;3.37;;;15.10;99.90;;;;;;4938170;29;20421;-71
2023/04/28 10:28:43;;;;;;;3.57;3.27;;;15.20;99.90;;;;;;4938533;29;20421;-70
2023/04/28 10:31:14;;;;;;;2.70;2.50;;;15.20;99.90;;;;;;4938274;29;20752;-70
2023/04/28 10:33:41;;;;;;;2.70;2.50;;;15.30;99.90;;;;;;4937677;29;20394;-72
2023/04/28 10:36:07;;;;;;;3.17;2.90;;;15.40;99.90;;;;;;4937995;29;20434;-71
2023/04/28 10:38:34;;;;;;;3.00;2.80;;;15.50;99.90;;;;;;4938115;29;20501;-71
2023/04/28 10:41:03;;;;;;;2.23;2.07;;;15.70;99.90;;;;;;4937742;29;20394;-71
2023/04/28 10:43:31;;;;;;;3.63;3.30;;;16.00;99.90;;;;;;4937336;29;20506;-70
2023/04/28 10:46:00;;;;;;;3.77;2.30;;;16.20;99.90;;;;;;4937688;29;20444;-72
2023/04/28 10:48:29;;;;;;;2.27;2.07;;;16.40;99.90;;;;;;4937675;29;20497;-71
2023/04/28 10:53:45;;;;;;;1.67;1.57;;;17.00;99.90;;;;;;4937340;29;20430;-70
2023/04/28 10:56:18;;;;;;;2.23;2.10;;;17.20;99.90;;;;;;4937571;29;20432;-69
2023/04/28 10:58:49;;;;;;;2.57;2.37;;;17.30;99.90;;;;;;4937496;29;20384;-71
2023/04/28 11:01:18;;;;;;;2.37;2.20;;;17.50;99.90;;;;;;4937585;29;20410;-70
2023/04/28 11:03:47;;;;;;;2.33;2.20;;;17.50;99.90;;;;;;4952015;29;20405;-72
2023/04/28 11:06:25;;;;;;;2.53;2.27;;;17.50;99.90;;;;;;4956279;29;20443;-69
2023/04/28 11:08:56;;;;;;;2.23;2.13;;;17.60;99.90;;;;;;4954735;29;20918;-70
2023/04/28 11:11:25;;;;;;;3.07;2.30;;;17.80;99.90;;;;;;4954136;29;20513;-70
2023/04/28 11:13:53;;;;;;;2.60;2.40;;;18.00;99.90;;;;;;4938574;28;20460;-69
2023/04/28 11:16:21;;;;;;;1.77;1.50;;;18.10;99.90;;;;;;4956481;29;20462;-68
2023/04/28 11:18:51;;;;;;;1.40;1.30;;;18.30;99.90;;;;;;4956315;29;20405;-68
2023/04/28 11:21:21;;;;;;;1.33;1.27;;;18.40;99.90;;;;;;4956105;29;20474;-67
2023/04/28 11:23:47;;;;;;;2.23;1.20;;;18.50;99.90;;;;;;4952804;29;20834;-66
2023/04/28 11:26:13;;;;;;;1.20;1.10;;;18.60;99.90;;;;;;4936829;29;20431;-68
2023/04/28 11:28:53;;;;;;;1.17;1.17;;;18.70;99.90;;;;;;4936944;29;20922;-70
2023/04/28 11:31:22;;;;;;;1.77;1.67;;;18.80;99.90;;;;;;4936894;29;20396;-67
2023/04/28 11:33:56;;;;;;;1.77;1.63;;;19.00;99.90;;;;;;4936703;29;20421;-69
2023/04/28 11:36:36;;;;;;;1.00;1.00;;;19.00;99.90;;;;;;4920430;29;20409;-67
2023/04/28 11:39:03;;;;;;;0.93;0.93;;;19.00;99.90;;;;;;4943276;29;20542;-66
2023/04/28 11:41:30;;;;;;;1.70;1.37;;;19.00;99.90;;;;;;4955788;29;20470;-68
2023/04/28 11:43:56;;;;;;;1.20;1.10;;;19.10;99.90;;;;;;4955364;28;20426;-69
2023/04/28 11:46:23;;;;;;;0.80;0.80;;;19.20;99.90;;;;;;4955773;29;20416;-67
2023/04/28 11:49:00;;;;;;;0.80;0.80;;;19.10;99.90;;;;;;4955815;29;20170;-69
2023/04/28 11:51:34;;;;;;;0.70;0.70;;;19.10;99.90;;;;;;4955414;29;20932;-69
2023/04/28 11:54:01;;;;;;;1.27;0.90;;;19.00;99.90;;;;;;4946413;29;20426;-69
2023/04/28 11:56:27;;;;;;;0.93;0.93;;;18.90;99.90;;;;;;4936521;29;20409;-69
2023/04/28 11:59:07;;;;;;;0.87;0.87;;;18.80;99.90;;;;;;4936625;29;20468;-68
2023/04/28 12:01:54;;;;;;;0.67;0.67;;;18.60;99.90;;;;;;4936565;29;20468;-68
2023/04/28 12:04:38;;;;;;;2.03;0.77;;;18.50;99.90;;;;;;4934966;29;20469;-68
2023/04/28 12:07:20;;;;;;;0.60;0.60;;;18.50;99.90;;;;;;4936226;29;20439;-68
2023/04/28 12:10:09;;;;;;;0.80;0.60;;;18.50;99.90;;;;;;4934346;29;20953;-68
2023/04/28 12:12:35;;;;;;;0.70;0.70;;;18.50;99.90;;;;;;4936001;29;20484;-69
2023/04/28 12:15:06;;;;;;;0.90;0.90;;;18.40;99.90;;;;;;4935924;29;20917;-68
2023/04/28 12:17:40;;;;;;;0.70;0.70;;;18.30;99.90;;;;;;4936343;29;20177;-69
2023/04/28 12:20:32;;;;;;;0.80;0.80;;;18.30;99.90;;;;;;4936232;29;20508;-68
2023/04/28 12:22:57;;;;;;;1.13;1.13;;;18.20;99.90;;;;;;4945215;29;20507;-69
2023/04/28 12:25:23;;;;;;;0.60;0.60;;;18.10;99.90;;;;;;4935717;29;20480;-68
2023/04/28 12:28:02;;;;;;;0.93;0.83;;;18.10;99.90;;;;;;4953620;29;20177;-69
2023/04/28 12:30:29;;;;;;;1.37;1.27;;;18.00;99.90;;;;;;4934499;29;20184;-69
2023/04/28 12:32:55;;;;;;;0.90;0.90;;;17.90;99.90;;;;;;4934379;29;20413;-68
2023/04/28 12:35:22;;;;;;;1.13;1.03;;;17.70;99.90;;;;;;4934112;29;20462;-69
2023/04/28 12:37:48;;;;;;;0.80;0.80;;;17.60;99.90;;;;;;4934248;29;20483;-69
2023/04/28 12:40:13;;;;;;;0.57;0.57;;;17.40;99.90;;;;;;4933840;29;20458;-69
2023/04/28 12:42:39;;;;;;;1.60;0.90;;;17.20;99.90;;;;;;4933880;29;20208;-68
2023/04/28 12:45:06;;;;;;;0.73;0.73;;;17.00;99.90;;;;;;4933433;29;20204;-68
2023/04/28 12:47:32;;;;;;;1.53;0.93;;;16.90;99.90;;;;;;4933817;29;20412;-68
2023/04/28 12:49:57;;;;;;;0.83;0.73;;;16.80;99.90;;;;;;4933796;29;20387;-68
2023/04/28 12:52:23;;;;;;;1.47;0.60;;;16.70;99.90;;;;;;4942926;29;20418;-68
2023/04/28 12:54:49;;;;;;;1.20;1.20;;;16.60;99.90;;;;;;4954300;28;20199;-69
2023/04/28 12:57:18;;;;;;;0.53;0.53;;;16.40;99.90;;;;;;4955208;29;20243;-70
2023/04/28 12:59:47;;;;;;;0.50;0.40;;;16.20;99.90;;;;;;4954989;29;20203;-68
2023/04/28 13:02:14;;;;;;;0.40;0.40;;;15.90;99.90;;;;;;4937584;29;21003;-68
2023/04/28 13:04:41;;;;;;;0.30;0.30;;;15.70;99.90;;;;;;4954263;28;20533;-68
2023/04/28 13:07:07;;;;;;;0.40;0.40;;;15.40;99.90;;;;;;4954257;29;20950;-69
2023/04/28 13:09:33;;;;;;;0.40;0.40;;;15.30;99.90;;;;;;4954982;29;20491;-69
2023/04/28 13:11:58;;;;;;;0.57;0.57;;;15.20;99.90;;;;;;4954998;29;20188;-68
2023/04/28 13:14:26;;;;;;;0.50;0.50;;;15.20;99.90;;;;;;4955403;28;20213;-69
2023/04/28 13:16:52;;;;;;;0.53;0.53;;;15.30;99.90;;;;;;4941290;29;20667;-69
2023/04/28 13:19:17;;;;;;;0.40;0.40;;;15.40;99.90;;;;;;4958631;29;20420;-69
2023/04/28 13:21:45;;;;;;;0.83;0.83;;;15.60;99.90;;;;;;4943656;29;20210;-69
2023/04/28 13:24:12;;;;;;;0.47;0.47;;;15.70;99.90;;;;;;4938732;29;20197;-67
2023/04/28 13:26:39;;;;;;;0.50;0.50;;;15.90;99.90;;;;;;4939090;29;20414;-69
2023/04/28 13:29:06;;;;;;;0.40;0.40;;;16.10;99.90;;;;;;4939018;29;20892;-68
2023/04/28 13:31:32;;;;;;;0.57;0.57;;;16.30;99.90;;;;;;4939256;29;20493;-69
2023/04/28 13:34:00;;;;;;;0.43;0.43;;;16.40;99.90;;;;;;4938639;29;20648;-69
2023/04/28 13:36:28;;;;;;;0.40;0.40;;;16.40;99.90;;;;;;4953334;29;20183;-68
2023/04/28 13:38:54;;;;;;;0.60;0.60;;;16.60;99.90;;;;;;4958231;29;20394;-69
2023/04/28 13:41:20;;;;;;;0.60;0.60;;;16.70;99.90;;;;;;4958024;29;20443;-69
2023/04/28 13:43:46;;;;;;;1.20;1.20;;;16.80;99.90;;;;;;4957805;29;20420;-69
2023/04/28 13:46:12;;;;;;;0.60;0.60;;;16.90;99.90;;;;;;4957536;28;20195;-68
2023/04/28 13:48:38;;;;;;;2.00;0.60;;;16.90;99.90;;;;;;4957816;29;20399;-67
2023/04/28 13:51:05;;;;;;;0.40;0.40;;;17.00;99.90;;;;;;4944563;29;20435;-69
2023/04/28 13:53:31;;;;;;;0.60;0.53;;;17.00;99.90;;;;;;4938240;29;20512;-69
2023/04/28 13:55:57;;;;;;;0.30;0.30;;;17.10;99.90;;;;;;4921363;29;20424;-69
2023/04/28 13:58:26;;;;;;;0.40;0.37;;;17.20;99.90;;;;;;4938573;29;20732;-69
2023/04/28 14:00:53;;;;;;;0.37;0.37;;;17.20;99.90;;;;;;4938415;29;20462;-69
2023/04/28 14:03:22;;;;;;;0.60;0.60;;;17.20;99.90;;;;;;4938211;29;20467;-69
2023/04/28 14:05:50;;;;;;;0.63;0.63;;;17.00;99.90;;;;;;4949669;29;20462;-69
2023/04/28 14:08:16;;;;;;;1.50;1.40;;;16.80;99.90;;;;;;4957325;29;20521;-69
2023/04/28 14:10:42;;;;;;;9.93;5.50;;;16.70;99.90;;;;;;4957086;29;20408;-68
2023/04/28 14:13:08;;;;;;;3.50;1.37;;;16.60;99.90;;;;;;4957164;29;20897;-69
2023/04/28 14:15:34;;;;;;;0.77;0.77;;;16.50;99.90;;;;;;4957102;28;20198;-69
2023/04/28 14:18:00;;;;;;;1.00;1.00;;;16.50;99.90;;;;;;4956991;29;20491;-68
2023/04/28 14:20:26;;;;;;;0.50;0.50;;;16.50;99.90;;;;;;4945613;29;20665;-69
2023/04/28 14:22:52;;;;;;;0.80;0.80;;;16.60;99.90;;;;;;4939776;29;20549;-70
2023/04/28 14:25:18;;;;;;;0.70;0.70;;;16.70;99.90;;;;;;4937813;29;20459;-69
2023/04/28 14:27:44;;;;;;;0.50;0.50;;;16.80;99.90;;;;;;4938888;29;20176;-68
2023/04/28 14:30:09;;;;;;;0.67;0.67;;;16.80;99.90;;;;;;4939942;29;20172;-69
2023/04/28 14:32:37;;;;;;;0.40;0.40;;;16.70;99.90;;;;;;4940666;29;20231;-69
2023/04/28 14:35:04;;;;;;;0.60;0.40;;;16.70;99.90;;;;;;4939676;29;20605;-69
2023/04/28 14:37:31;;;;;;;0.60;0.50;;;16.50;99.90;;;;;;4938350;29;20384;-69
2023/04/28 14:39:56;;;;;;;0.60;0.60;;;16.40;99.90;;;;;;4938085;29;20513;-69
2023/04/28 14:42:28;;;;;;;0.50;0.50;;;16.30;99.90;;;;;;4938002;29;20502;-69
2023/04/28 14:44:54;;;;;;;0.53;0.53;;;16.20;99.90;;;;;;4937394;29;20191;-67
2023/04/28 14:47:19;;;;;;;0.47;0.47;;;16.10;99.90;;;;;;4937588;29;20485;-68
2023/04/28 14:49:47;;;;;;;0.47;0.47;;;16.10;99.90;;;;;;4937953;29;20181;-67
2023/04/28 14:52:13;;;;;;;0.80;0.50;;;16.00;99.90;;;;;;4937532;29;20165;-68
2023/04/28 14:54:38;;;;;;;0.37;0.37;;;15.90;99.90;;;;;;4936741;29;20797;-68
2023/04/28 14:57:05;;;;;;;0.60;0.60;;;15.80;99.90;;;;;;4937652;29;20186;-69
2023/04/28 14:59:31;;;;;;;1.00;0.90;;;15.70;99.90;;;;;;4937283;29;20530;-69
2023/04/28 15:01:56;;;;;;;0.67;0.67;;;15.70;99.90;;;;;;4937054;29;20440;-69
2023/04/28 15:04:28;;;;;;;0.57;0.57;;;15.80;99.90;;;;;;4936686;29;20433;-67
2023/04/28 15:06:54;;;;;;;0.60;0.60;;;15.80;99.90;;;;;;4949513;29;20207;-66
2023/04/28 15:09:20;;;;;;;0.53;0.53;;;15.90;99.90;;;;;;4956188;29;20409;-70
2023/04/28 15:11:45;;;;;;;0.73;0.73;;;16.00;99.90;;;;;;4955979;29;20492;-73
2023/04/28 15:14:11;;;;;;;0.73;0.73;;;16.10;99.90;;;;;;4954672;28;20784;-67
2023/04/28 15:16:37;;;;;;;0.73;0.70;;;16.00;99.90;;;;;;4956279;29;20208;-69
2023/04/28 15:19:02;;;;;;;1.00;0.90;;;16.00;99.90;;;;;;4955907;29;20216;-70
2023/04/28 15:21:29;;;;;;;0.80;0.80;;;16.00;99.90;;;;;;4938717;29;20181;-69
2023/04/28 15:23:55;;;;;;;0.77;0.77;;;16.00;99.90;;;;;;4955404;28;20240;-68
2023/04/28 15:26:22;;;;;;;5.83;1.27;;;16.00;99.90;;;;;;4956083;29;20423;-67
2023/04/28 15:28:48;;;;;;;0.80;0.80;;;16.00;99.90;;;;;;4955363;29;20180;-68
2023/04/28 15:31:13;;;;;;;0.80;0.80;;;15.90;99.90;;;;;;4955546;29;20500;-69
2023/04/28 15:33:39;;;;;;;0.80;0.80;;;15.90;99.90;;;;;;4955356;29;20215;-68
2023/04/28 15:36:05;;;;;;;1.10;1.10;;;15.90;99.90;;;;;;4955273;28;20197;-67
2023/04/28 15:38:30;;;;;;;0.93;0.93;;;15.90;99.90;;;;;;4954577;28;20256;-67
2023/04/28 15:40:56;;;;;;;2.20;1.37;;;15.90;99.90;;;;;;4955578;29;20259;-68
2023/04/28 15:43:23;;;;;;;1.30;1.17;;;16.00;99.90;;;;;;4934565;29;20209;-67
2023/04/28 15:45:50;;;;;;;1.57;1.47;;;16.00;99.90;;;;;;4936231;29;20429;-67
2023/04/28 15:48:16;;;;;;;1.00;1.00;;;16.00;99.90;;;;;;4936418;29;20488;-69
2023/04/28 15:50:42;;;;;;;0.77;0.77;;;15.90;99.90;;;;;;4936607;29;20918;-70
2023/04/28 15:53:07;;;;;;;0.60;0.60;;;15.90;99.90;;;;;;4935938;29;20413;-69
2023/04/28 15:55:33;;;;;;;0.57;0.53;;;15.90;99.90;;;;;;4919298;29;20445;-73
2023/04/28 15:58:00;;;;;;;0.87;0.63;;;15.90;99.90;;;;;;4918918;29;20337;-71
2023/04/28 16:00:25;;;;;;;0.40;0.40;;;15.90;99.90;;;;;;4936072;29;20229;-72
2023/04/28 16:02:51;;;;;;;0.70;0.70;;;15.90;99.90;;;;;;4935974;29;20544;-73
2023/04/28 16:05:17;;;;;;;0.43;0.43;;;16.00;99.90;;;;;;4935445;29;20191;-72
2023/04/28 16:07:43;;;;;;;0.70;0.70;;;15.90;99.90;;;;;;4918752;29;20177;-72
2023/04/28 16:10:11;;;;;;;0.60;0.60;;;15.90;99.90;;;;;;4935713;29;20217;-75
2023/04/28 16:12:38;;;;;;;1.43;1.33;;;15.90;99.90;;;;;;4935938;29;20590;-71
2023/04/28 16:15:04;;;;;;;1.20;0.90;;;15.80;99.90;;;;;;4935725;29;20482;-74
2023/04/28 16:17:30;;;;;;;0.60;0.60;;;15.80;99.90;;;;;;4935838;29;20422;-72
2023/04/28 16:19:56;;;;;;;0.60;0.60;;;15.70;99.90;;;;;;4935750;29;20418;-71
2023/04/28 16:22:24;;;;;;;0.40;0.30;;;15.70;99.90;;;;;;4935791;29;20574;-67
2023/04/28 16:24:50;;;;;;;1.03;0.53;;;15.60;99.90;;;;;;4935207;29;20425;-72
2023/04/28 16:27:15;;;;;;;0.40;0.40;;;15.60;99.90;;;;;;4949042;29;20440;-72
2023/04/28 16:29:41;;;;;;;2.73;0.70;;;15.60;99.90;;;;;;4937929;29;20490;-71
2023/04/28 16:32:07;;;;;;;0.50;0.50;;;15.60;99.90;;;;;;4955214;29;20257;-72
2023/04/28 16:34:32;;;;;;;0.60;0.60;;;15.60;99.90;;;;;;4954891;28;20189;-72
2023/04/28 16:36:59;;;;;;;0.57;0.57;;;15.50;99.90;;;;;;4955235;29;20255;-70
2023/04/28 16:39:25;;;;;;;0.50;0.50;;;15.50;99.90;;;;;;4937973;29;20173;-73
2023/04/28 16:41:50;;;;;;;0.50;0.50;;;15.50;99.90;;;;;;4925551;29;20461;-72
2023/04/28 16:44:17;;;;;;;0.70;0.70;;;15.50;99.90;;;;;;4918369;29;20805;-72
2023/04/28 16:46:42;;;;;;;0.80;0.50;;;15.50;99.90;;;;;;4936040;29;20213;-73
2023/04/28 16:49:08;;;;;;;0.90;0.90;;;15.50;99.90;;;;;;4936214;29;20435;-72
2023/04/28 16:51:34;;;;;;;0.60;0.60;;;15.50;99.90;;;;;;4939722;29;20720;-73
2023/04/28 16:54:00;;;;;;;0.87;0.83;;;15.60;99.90;;;;;;4939195;29;20197;-68